Terminal Aerodrome Forecast
Issued by NWS

Home | Current Version | Previous Version | Text Only | Print | Product List | Glossary On
Versions: 1 2 3 4 5 6 7 8 9 10 11 12 13 14 15 16 17 18 19 20 21 22 23 24
828
FTUS45 KFGZ 301140
TAFGCN
TAF
KGCN 301140Z 3012/0112 VRB03KT P6SM SCT045 BKN080
      TEMPO 3012/3016 -SHRA OVC025
     FM301800 18006KT P6SM -SHRA BKN035 OVC060
      TEMPO 3019/3023 5SM TSRA OVC025CB
     FM010200 07005KT P6SM VCSH SCT012 BKN025=

USA.gov is the U.S. government's official web portal to all federal, state and local government web resources and services.